Oribe Lozano

Recruteur - Club America
3 Déc 2028
Dimanche
Processus

Personnalité

Adaptabilité (3) Ambition (14) Controverse (15) Loyauté (1) Pression (2) Professionnalisme (17) Sportivité (8) Tempérament (11)

Profil

Style d'entraînement Démocratique
Diplôme National B
Détermination 12
Gestion des joueurs 12
Motivation 6
Discipline 15
Satisfaction professionnelle
100%
Fatigue
0%
Rôle Recruteur
Salaire 81.1K p/s
Contrat 14.03.2029

Performance

Comportement Bon
Efficacité de l'entraînement
49%
Développement des joueurs
35%
Prévention des blessures
70%
Mise en place tactique
60%

Événements récents

A participé à une réunion de recrutement maintenant
A participé à une réunion de recrutement maintenant
A recommandé une cible de transfert maintenant
A recommandé une cible de transfert maintenant
A évalué un joueur maintenant
A évalué un joueur maintenant
A évalué un joueur maintenant
A évalué un joueur maintenant

Suivi en cours

317
Joueur Club Statut Capacité Confiance Observé Dernière observation Dernier vote
Alexandro Bernabei Internacional Actif 133 / 133 40% 2 02.12.2028 -
Miguel Rodríguez Alavés Actif 147 / 139 40% 2 02.12.2028 -
Allan Saint-Maximin Charlotte Football Club Actif 151 / 144 40% 6 02.12.2028 -
Buba Sangaré Elche Actif 141 / 137 40% 4 01.12.2028 -
Martim Neto Elche Actif 146 / 140 40% 4 01.12.2028 -
Talles Magno New York City Actif 141 / 134 40% 4 01.12.2028 -
Jon Gorrotxategi Real Sociedad Actif 148 / 155 40% 2 01.12.2028 -
Ibrahim Fullah Charlton Athletic Actif 128 / 129 40% 1 01.12.2028 -
Felipe Obradovich Ferro Carril Oeste Actif 114 / 127 40% 1 01.12.2028 -
Erick Pulga Bahia Actif 138 / 124 40% 9 29.11.2028 -
Endrick Boca Juniors Actif 153 / 161 40% 4 29.11.2028 -
Santiago Esquivel Banfield Actif 119 / 111 40% 4 28.11.2028 -
Bojan Kovačević Cádiz Actif 136 / 144 40% 4 28.11.2028 -
Uriel Antuna Dinamo Moscow Actif 142 / 133 40% 4 28.11.2028 -
Álvaro Barreal Atlético Mineiro Actif 134 / 128 40% 2 28.11.2028 -
Ilay Feingold New England Revolution Actif 113 / 129 40% 2 28.11.2028 -
Calebe Fortaleza Actif 144 / 145 40% 2 28.11.2028 -
Martín Ojeda Orlando City Actif 132 / 136 40% 3 26.11.2028 -
Gonzalo Plata Nacional Actif 150 / 139 40% 6 25.11.2028 -
Lewis Miley Newcastle United Actif 155 / 152 40% 2 25.11.2028 -
Nahuel Tenaglia Banfield Actif 126 / 126 40% 6 25.11.2028 -
Hugo Sotelo Celta Actif 153 / 149 40% 2 25.11.2028 -
Renan Lodi Atlético Mineiro Actif 134 / 128 40% 1 25.11.2028 -
Facundo Torres Millonarios Actif 153 / 151 40% 7 23.11.2028 -
Kaiki Cruzeiro Actif 137 / 128 40% 2 23.11.2028 -
Lucas Assadi AIK Actif 137 / 120 40% 1 23.11.2028 -
Jonathan De Irastorza Independiente Actif 140 / 119 40% 3 22.11.2028 -
Agustín Giay Palmeiras Actif 149 / 129 40% 4 22.11.2028 -
Bitello Universidad de Chile Actif 154 / 148 40% 5 22.11.2028 -
Gérson Cruzeiro Actif 134 / 136 40% 3 22.11.2028 -
Urko Izeta Cádiz Actif 144 / 137 40% 1 22.11.2028 -
Johan Caicedo Deportivo Pasto Actif 110 / 126 40% 1 22.11.2028 -
Andrés Martín Racing Santander Actif 152 / 135 40% 4 20.11.2028 -
Juan Pablo Domínguez Monterrey Actif 138 / 124 40% 2 20.11.2028 -
Alan Lescano Argentinos Juniors Actif 132 / 127 40% 1 20.11.2028 -
José Paradela Las Palmas Actif 153 / 151 40% 2 19.11.2028 -
David Da Costa Portland Timbers Actif 141 / 127 40% 1 19.11.2028 -
Joaquín Mosqueira Talleres Actif 136 / 124 40% 1 19.11.2028 -
Samuel Gidi FC Cincinnati Actif 126 / 123 40% 1 19.11.2028 -
Romelle Donovan Brentford Actif 141 / 132 40% 1 19.11.2028 -
Fletcher Boyd Accrington Stanley Actif 102 / 120 40% 1 19.11.2028 -
Harry Gray Harrogate Town Actif 137 / 131 40% 1 19.11.2028 -
Samuel Lino Flamengo Actif 132 / 149 40% 4 16.11.2028 -
Rico Henry River Plate Actif 143 / 146 40% 2 16.11.2028 -
Emmanuel Latte Lath Atlanta United FC Actif 139 / 133 40% 1 16.11.2028 -
Pablo Maffeo Olympiacos Actif 146 / 140 40% 1 15.11.2028 -
Dani Ceballos RC Lens Actif 155 / 151 40% 1 15.11.2028 -
Jens Petter Hauge Bodo/Glimt Actif 153 / 138 40% 2 14.11.2028 -
Kevin Zenón Boca Juniors Actif 125 / 131 40% 4 14.11.2028 -
Tajon Buchanan Villarreal Actif 152 / 145 40% 2 13.11.2028 -
Javier Mena Aguilas Doradas Actif 131 / 113 40% 3 13.11.2028 -
Luís Esteves Atlas Actif 138 / 132 40% 1 13.11.2028 -
Carlos Baleba Norwich City Actif 154 / 163 40% 1 13.11.2028 -
Alejo Córdoba Tigre Actif 109 / 121 40% 2 12.11.2028 -
Yusi Alavés Actif 142 / 140 40% 2 12.11.2028 -
Lyle Foster Rosenborg Actif 125 / 134 40% 5 11.11.2028 -
Cucho Hernández Granada Actif 156 / 149 40% 2 11.11.2028 -
Jorge De Frutos Rayo Vallecano Actif 157 / 148 40% 3 09.11.2028 -
Ryan Gauld Vancouver Whitecaps Actif 139 / 139 40% 3 09.11.2028 -
Bongokuhle Hlongwane LA Galaxy Actif 141 / 140 40% 3 07.11.2028 -
Pau Navarro Villarreal Actif 146 / 154 40% 2 06.11.2028 -
Mateo Seoane Gimnasia La Plata Actif 121 / 119 40% 1 06.11.2028 -
Jozhua Vertrouwd Rayo Vallecano Actif 136 / 125 40% 2 05.11.2028 -
Thiago Silvero Vélez Actif 128 / 119 40% 3 04.11.2028 -
Josen Escobar Patriotas Actif 125 / 121 40% 1 04.11.2028 -
Juan Manuel Villalba Tigre Actif 119 / 115 40% 1 04.11.2028 -
Diego León Rotherham United Actif 125 / 130 40% 1 04.11.2028 -
Dieguinho Grêmio Actif 130 / 118 40% 1 04.11.2028 -
Nicolás Azambuja Nottingham Forest Actif 126 / 134 40% 1 04.11.2028 -
Jhon Arias Palmeiras Actif 130 / 136 40% 1 31.10.2028 -
Guille Rosas Boca Juniors Actif 157 / 144 40% 4 29.10.2028 -
Álex Valle Boca Juniors Actif 158 / 144 40% 5 29.10.2028 -
Carlos Soler Tigres Actif 156 / 152 40% 1 28.10.2028 -
Antony Portland Timbers Actif 139 / 129 40% 3 27.10.2028 -
Jorge Salinas Racing Santander Actif 138 / 133 40% 2 26.10.2028 -
Pedro de la Vega Columbus Crew Actif 142 / 135 40% 4 26.10.2028 -
Santiago Murillo Atletico Nacional Actif 137 / 122 40% 3 26.10.2028 -
Andrey Ivlev Nizhniy Novgorod Actif 107 / 121 40% 1 26.10.2028 -
Matías Lozano Atletico Nacional Actif 101 / 116 40% 1 26.10.2028 -
Sam Chambers Northampton Town Actif 109 / 125 40% 1 26.10.2028 -
Lewis Hall Newcastle United Actif 156 / 168 40% 1 26.10.2028 -
Santiago Sosa Yung Defensa y Justicia Actif 131 / 115 40% 2 25.10.2028 -
Tiago Peñalba San Martín Actif 109 / 115 40% 1 25.10.2028 -
Telasco Segovia Inter Miami CF Actif 139 / 128 40% 4 22.10.2028 -
Rodrigo Garro Corinthians Actif 152 / 132 40% 1 22.10.2028 -
Jonathan Bamba Chicago Fire Actif 129 / 139 40% 5 21.10.2028 -
Oussama Idrissi Malmo FF Actif 128 / 147 40% 6 20.10.2028 -
Leandro Andrade Chicago Fire Actif 127 / 138 40% 5 18.10.2028 -
Toni Fruk Talleres Actif 138 / 126 40% 3 18.10.2028 -
Sergi Cardona KAA Gent Actif 154 / 159 40% 3 17.10.2028 -
Andreas Pereira Palmeiras Actif 150 / 127 40% 1 16.10.2028 -
Tomás Porra Barracas Central Actif 115 / 111 40% 1 16.10.2028 -
Elián Giménez Sarmiento Actif 122 / 123 40% 1 16.10.2028 -
Adrien Truffert Flamengo Actif 170 / 142 40% 2 14.10.2028 -
Iván Martín Racing Santander Actif 157 / 145 40% 3 12.10.2028 -
Caio Vidal Deportivo Pereira Actif 127 / 138 40% 2 12.10.2028 -
Riqui Puig CF Montreal Actif 150 / 144 40% 4 10.10.2028 -
Ritsu Doan Gamba Osaka Actif 158 / 136 40% 4 08.10.2028 -
Samuel Lucero River Plate Actif 121 / 116 40% 2 08.10.2028 -
Riku Yamane Yokohama F. Marinos Actif 144 / 131 40% 2 07.10.2028 -
Diego Luna Real Salt Lake Actif 143 / 132 40% 1 07.10.2028 -
Benja Cremaschi Inter Miami CF Actif 134 / 135 40% 1 02.10.2028 -
Lukas Kelly-Heald Wellington Phoenix Actif 125 / 127 40% 1 02.10.2028 -
Luca Langoni Columbus Crew Actif 127 / 135 40% 4 27.09.2028 -
Breno Bidon Corinthians Actif 127 / 121 40% 2 27.09.2028 -
Kauã Moraes Flamengo Actif 135 / 128 40% 1 27.09.2028 -
Juan José Arias Real Salt Lake Actif 120 / 128 40% 2 26.09.2028 -
Mateo Mendoza Yokohama F. Marinos Actif 141 / 132 40% 1 26.09.2028 -
Nuno Moreira Vasco da Gama Actif 123 / 137 40% 3 23.09.2028 -
Fran García Betis Actif 161 / 156 40% 2 21.09.2028 -
Hamzat Ojediran Colorado Rapids Actif 134 / 131 40% 3 20.09.2028 -
Luis Sinisterra Cruzeiro Actif 135 / 148 40% 1 20.09.2028 -
Mauricio Amaro Atlanta United FC Actif 124 / 133 40% 1 20.09.2028 -
Christian Kashima Antlers Actif 124 / 149 40% 1 15.09.2028 -
Markus Karlsson Hammarby Actif 130 / 117 40% 1 14.09.2028 -
Camilo Martinez Cortulua Actif 142 / 126 40% 2 12.09.2028 -
Izan Merino Málaga Actif 142 / 132 40% 1 12.09.2028 -
Shuto Nakano Sanfrecce Hiroshima Actif 144 / 129 40% 1 10.09.2028 -
Fabricio Corbalán Gimnasia La Plata Actif 112 / 126 40% 1 10.09.2028 -
Mario García Racing Santander Actif 136 / 134 40% 1 10.09.2028 -
Alexey Miranchuk Atlanta United FC Actif 144 / 145 40% 2 07.09.2028 -
Joshua Rawlins Melbourne Victory Actif 128 / 127 40% 2 07.09.2028 -
Andrés Gómez Vasco da Gama Actif 144 / 133 40% 3 05.09.2028 -
Tobías Ramírez River Plate Actif 133 / 146 40% 2 04.09.2028 -
Liel Abada Inter Miami CF Actif 148 / 140 40% 1 04.09.2028 -
Pape Guèye Villarreal Actif 163 / 164 40% 1 04.09.2028 -
Moussa N'Diaye Al Nasr Actif 125 / 120 40% 1 30.08.2028 -
Dean Huijsen Las Palmas Actif 148 / 162 40% 1 29.08.2028 -
Igor Serrote Al Ain Actif 143 / 137 40% 1 29.08.2028 -
Ignacio Perruzzi San Lorenzo Actif 129 / 130 40% 1 28.08.2028 -
Abdoulkarim Traoré Al Ain Actif 135 / 138 40% 1 28.08.2028 -
Mbekezeli Mbokazi Chicago Fire Actif 133 / 140 40% 1 26.08.2028 -
Marius Marin Al Nasr Perdu 136 / 146 40% 1 25.08.2028 -
Marquinhos APOEL Actif 142 / 141 40% 2 22.08.2028 -
Zakaria El Ouahdi Hamburger SV Actif 143 / 140 40% 1 22.08.2028 -
Musa Barrow ES Setif Actif 135 / 146 40% 1 22.08.2028 -
Tommaso Barbieri Cremonese Actif 139 / 137 40% 1 20.08.2028 -
Che Adams Torino Actif 141 / 147 40% 1 20.08.2028 -
Jayden Addai Bari Actif 149 / 138 40% 2 19.08.2028 -
Faustino Anjorin Hellas Verona Actif 137 / 132 40% 1 19.08.2028 -
Antoine Hainaut Venezia Actif 143 / 132 40% 1 19.08.2028 -
Exequiel Palacios Lazio Actif 161 / 159 40% 1 18.08.2028 -
Tommaso Berti Cesena Actif 143 / 134 40% 1 17.08.2028 -
Alessio Zerbin Frosinone Actif 138 / 134 40% 1 17.08.2028 -
Tomáš Suslov Hellas Verona Actif 139 / 134 40% 1 17.08.2028 -
Gaspar Gijón Actif 151 / 144 40% 6 16.08.2028 -
Pablo Fornals Betis Actif 154 / 147 40% 1 16.08.2028 -
Alfon Sevilla Actif 153 / 146 40% 1 16.08.2028 -
Hugo Álvarez Celta Actif 154 / 151 40% 3 14.08.2028 -
Manu Fuster Las Palmas Actif 140 / 136 40% 4 14.08.2028 -
Javi Ontiveros Cádiz Actif 144 / 136 40% 2 13.08.2028 -
Arnaut Danjuma Deportivo La Coruña Actif 148 / 153 40% 2 13.08.2028 -
Donny van de Beek Girona Actif 150 / 144 40% 2 12.08.2028 -
Oriol Rey Levante Actif 131 / 135 40% 1 12.08.2028 -
Santi Comesaña Villarreal Actif 161 / 152 40% 1 12.08.2028 -
Álvaro Fidalgo Betis Actif 154 / 144 40% 2 11.08.2028 -
Giovani Lo Celso Betis Actif 155 / 155 40% 1 10.08.2028 -
Julien Ponceau Valladolid Actif 139 / 131 40% 1 10.08.2028 -
Pablo Martínez Málaga Actif 138 / 137 40% 1 09.08.2028 -
Marcus Tavernier Bournemouth Actif 148 / 145 40% 1 08.08.2028 -
Ilias Chair Queens Park Rangers Actif 134 / 143 40% 1 08.08.2028 -
Riki Deportivo La Coruña Actif 135 / 140 40% 1 07.08.2028 -
Marvin Park Las Palmas Actif 148 / 143 40% 1 06.08.2028 -
Pedro Díaz Rayo Vallecano Actif 150 / 148 40% 1 06.08.2028 -
Callum Brittain Middlesbrough Actif 144 / 139 40% 2 05.08.2028 -
Demarai Gray Birmingham Actif 146 / 134 40% 2 02.08.2028 -
Andrey Santos Bolton Wanderers Actif 149 / 157 40% 1 02.08.2028 -
Curro Burgos Actif 143 / 144 40% 2 01.08.2028 -
Vitaly Janelt Derby County Actif 149 / 148 40% 2 31.07.2028 -
James Justin Leeds United Actif 145 / 145 40% 2 31.07.2028 -
Jhon Solís Birmingham Actif 145 / 138 40% 1 30.07.2028 -
Enric Franquesa Leganés Actif 144 / 143 40% 1 30.07.2028 -
Adrià Pedrosa Sevilla Actif 150 / 136 40% 1 28.07.2028 -
Edu Expósito Espanyol Actif 141 / 141 40% 1 25.07.2028 -
Hwang Hee-Chan Wolverhampton Actif 144 / 133 40% 1 25.07.2028 -
Sorba Thomas Stoke City Actif 146 / 141 40% 1 24.07.2028 -
Jason Knight Bristol City Actif 139 / 136 40% 1 24.07.2028 -
Carlos Moreno Pachuca Perdu 139 / 135 65% 1 10.07.2028 -
Carlos Alcaraz Stoke City Actif 161 / 159 40% 4 30.06.2028 -
Brais Méndez RC Lens Actif 157 / 161 40% 1 30.06.2028 -
Fran Beltrán Girona Actif 150 / 143 40% 1 30.06.2028 -
Alfredo Morelos Pachuca Actif 117 / 119 65% 1 19.06.2028 Approuver
Mawuli Mensah Ceuta Actif 117 / 119 40% 1 19.06.2028 -
Lamare Bogarde Reading Actif 137 / 142 40% 1 19.06.2028 -
Carlos Acevedo Santos Laguna Perdu 133 / 137 65% 1 12.06.2028 -
Lucas Di Yorio Santos Laguna Actif 128 / 109 65% 1 03.06.2028 Approuver
Diego Barbosa Toluca Perdu 128 / 122 65% 1 02.06.2028 -
Jon Morcillo Almería Actif 148 / 130 40% 3 01.06.2028 -
Maroan Sannadi Athletic Bilbao Actif 137 / 144 40% 1 01.06.2028 -
Isaac Romero Sevilla Actif 151 / 152 40% 1 01.06.2028 -
David Mella Deportivo La Coruña Actif 133 / 139 40% 6 27.05.2028 -
Jofre Carreras Espanyol Actif 146 / 148 40% 5 26.05.2028 -
Jesús Areso Athletic Bilbao Actif 147 / 152 40% 1 26.05.2028 -
Hervin Goyes Deportivo Pasto Actif 106 / 104 40% 1 26.05.2028 -
Jan Bürger Northampton Town Actif 125 / 125 40% 1 26.05.2028 -
Sergio Arribas Rayo Vallecano Actif 137 / 144 40% 1 24.05.2028 -
Omar El Hilali Espanyol Actif 158 / 156 40% 2 23.05.2028 -
Désiré Doué Stade Brestois Actif 159 / 173 40% 2 22.05.2028 -
Emile Smith Rowe Cardiff City Actif 160 / 156 40% 4 22.05.2028 -
Ilias Akhomach Athletic Bilbao Actif 146 / 146 40% 4 21.05.2028 -
Kang-In Lee Villarreal Actif 165 / 154 40% 2 21.05.2028 -
David Larrubia Málaga Actif 134 / 141 40% 3 20.05.2028 -
Ramón Terrats Getafe Actif 150 / 152 40% 1 20.05.2028 -
Luka Sučić Andorra Actif 149 / 144 40% 1 20.05.2028 -
André Almeida Valencia Actif 149 / 146 40% 1 19.05.2028 -
Aimar Osasuna Actif 151 / 145 40% 6 18.05.2028 -
Malick Fofana Sunderland Actif 150 / 155 40% 1 18.05.2028 -
Celías Ingenthron Platense Actif 127 / 132 40% 1 17.05.2028 -
Augusto Bando Ascoli Actif 105 / 110 40% 1 17.05.2028 -
Jaden Philogene Wolverhampton Actif 142 / 148 40% 2 14.05.2028 -
Nico Melamed Almería Actif 137 / 134 40% 1 14.05.2028 -
Pau Cubarsí Real Sociedad Actif 155 / 161 40% 3 13.05.2028 -
Josh Nichols Oldham Athletic Actif 123 / 121 40% 1 13.05.2028 -
Riquelme Thompson-Jones Accrington Stanley Actif 103 / 108 40% 1 10.05.2028 -
Tobiáš Pališčák Zlin Actif 103 / 99 40% 2 08.05.2028 -
Félix Correia LOSC Lille Actif 139 / 140 40% 1 08.05.2028 -
Jonathan Dubasin Osasuna Actif 149 / 145 40% 4 05.05.2028 -
Íñigo Vicente Racing Santander Actif 130 / 135 40% 1 05.05.2028 -
Ismaïla Sarr Crystal Palace Actif 149 / 147 40% 2 04.05.2028 -
Antony Betis Actif 154 / 159 40% 1 04.05.2028 -
Oihan Sancet Athletic Bilbao Actif 161 / 163 40% 4 03.05.2028 -
Marc Bernal Sevilla Actif 148 / 159 40% 1 30.04.2028 -
Héctor Fort Real Sociedad Actif 139 / 153 40% 1 30.04.2028 -
Ademola Lookman Atlético Madrid Actif 166 / 157 40% 1 27.04.2028 -
Samuel Edozie Southampton Actif 129 / 138 40% 1 26.04.2028 -
Mikel Jauregizar Athletic Bilbao Actif 167 / 163 40% 1 25.04.2028 -
Josh Acheampong Everton Actif 136 / 154 40% 1 25.04.2028 -
João Simões Sporting CP Actif 132 / 135 40% 1 24.04.2028 -
Roberto Fernández Braga Actif 145 / 141 40% 2 22.04.2028 -
Ryunosuke Sato Eibar Actif 132 / 134 40% 1 21.04.2028 -
Lucas Høgsberg RC Strasbourg Actif 139 / 143 40% 1 19.04.2028 -
Ben Gannon Doak Charlton Athletic Actif 148 / 147 40% 2 16.04.2028 -
Antonio Blanco Alavés Actif 146 / 152 40% 2 12.04.2028 -
Pablo Torre Mallorca Actif 146 / 156 40% 2 10.04.2028 -
Jaidon Anthony Derby County Actif 141 / 141 40% 2 09.04.2028 -
Ez Abde Betis Actif 155 / 151 40% 1 04.04.2028 -
Mikkel Damsgaard Brentford Actif 162 / 156 40% 1 02.04.2028 -
Pote Sporting CP Actif 159 / 163 40% 1 31.03.2028 -
Javi Puado Espanyol Actif 157 / 154 40% 1 27.03.2028 -
Christantus Uche Getafe Actif 138 / 148 40% 1 24.03.2028 -
Tyrhys Dolan Espanyol Actif 150 / 142 40% 1 21.03.2028 -
Thiago Almada LOSC Lille Actif 159 / 149 40% 1 21.03.2028 -
Geny Sporting CP Actif 155 / 156 40% 1 20.03.2028 -
Zito Luvumbo Cagliari Actif 139 / 134 40% 1 19.03.2028 -
Nicolás Castro Toluca Actif 135 / 137 40% 1 18.03.2028 Plus d'infos
Danilo Botafogo Actif 157 / 137 40% 1 31.12.2027 -
Anthony Lozano Santos Laguna Actif 131 / 133 51% 1 12.07.2027 -
Ben Sheaf Wrexham Actif 144 / 125 40% 1 06.07.2027 -
Jordan Pickford Everton Actif 153 / 152 40% 1 28.06.2027 -
Ismael Díaz Leon Actif 138 / 134 51% 1 21.06.2027 -
Emiliano Martínez Chelsea Actif 167 / 156 40% 1 18.06.2027 -
Aune Heggebø West Bromwich Albion Actif 131 / 120 40% 5 29.05.2027 -
Ivo Mammini Beitar Jerusalem Actif 111 / 122 40% 4 29.05.2027 -
Shea Charles Southampton Actif 130 / 133 40% 1 29.05.2027 -
Kamory Doumbia Stade Brestois Actif 139 / 134 40% 1 27.05.2027 -
Jordan Zemura Udinese Actif 136 / 138 40% 2 25.05.2027 -
Hicham Boudaoui OGC Nice Actif 133 / 138 40% 1 25.05.2027 -
Tommaso Pobega Bologna Actif 133 / 142 40% 4 24.05.2027 -
Lamine Camara Monaco Actif 145 / 138 40% 2 24.05.2027 -
Kévin Danois AJ Auxerre Actif 125 / 143 40% 6 23.05.2027 -
Adrián Bernabé Parma Actif 131 / 133 40% 2 22.05.2027 -
Jackson Muleka Konyaspor Actif 111 / 134 40% 2 21.05.2027 -
Tyrese Campbell Sheffield United Actif 121 / 125 40% 8 21.05.2027 -
Sam Bell Bristol City Actif 128 / 127 40% 2 20.05.2027 -
Sidny Lopes Cabral Trabzonspor Actif 117 / 127 40% 3 19.05.2027 -
Malik Mothersille Stockport County Actif 111 / 120 40% 1 19.05.2027 -
Yousef Salech Cardiff City Actif 124 / 118 40% 3 17.05.2027 -
Cristian Cásseres Toulouse FC Actif 128 / 132 40% 1 17.05.2027 -
Oh Hyeon-Gyu Besiktas Actif 143 / 109 40% 4 14.05.2027 -
Ekain Orobengoa Real Sociedad Actif 99 / 100 40% 1 14.05.2027 -
Rafael Navarro Famalicao Actif 129 / 120 40% 2 12.05.2027 -
Víctor Gómez Braga Actif 144 / 137 40% 3 11.05.2027 -
Unai Gómez Udinese Actif 147 / 134 40% 3 11.05.2027 -
Sergi Altimira Sporting CP Actif 148 / 134 40% 4 07.05.2027 -
Bradley Locko Stade Brestois Actif 131 / 137 40% 1 07.05.2027 -
Marezi Portsmouth Actif 125 / 131 40% 1 03.05.2027 -
Caleb Yirenkyi Coventry City Actif 141 / 143 40% 2 02.05.2027 -
Ngal'Ayel Mukau LOSC Lille Actif 143 / 135 40% 5 02.05.2027 -
Yunus Akgün Galatasaray Actif 138 / 139 40% 5 01.05.2027 -
Iván Fresneda Sporting CP Actif 141 / 151 40% 4 29.04.2027 -
Gabriel Sara Galatasaray Actif 129 / 146 40% 2 26.04.2027 -
Stephen Amankona Aduana Stars Actif 115 / 83 40% 1 21.04.2027 -
Dale Taylor Blackpool Actif 122 / 120 40% 2 20.04.2027 -
Wilfried Singo Galatasaray Actif 139 / 154 40% 3 19.04.2027 -
Josh Coburn Millwall Actif 113 / 116 40% 2 17.04.2027 -
Ernest Muçi Trabzonspor Actif 124 / 132 40% 1 17.04.2027 -
Samson Baidoo RC Lens Actif 140 / 146 40% 1 14.04.2027 -
Caspar Jander Southampton Actif 120 / 126 40% 1 12.04.2027 -
Milan van Ewijk Coventry City Actif 142 / 125 40% 1 12.04.2027 -
Timothy Witsel FC Metz Actif 129 / 130 40% 1 11.04.2027 -
Tariq Lamptey Queens Park Rangers Actif 140 / 126 40% 1 08.04.2027 -
Mario Dorgeles Braga Actif 133 / 131 40% 2 07.04.2027 -
Ilyas Ansah Hull City Actif 127 / 135 40% 3 03.04.2027 -
Quentin Merlin Stade Rennais Actif 139 / 128 40% 1 30.03.2027 -
Wandile Duba ASO Chlef Actif 122 / 101 40% 1 28.03.2027 -
Andrea Colpani Monza Actif 137 / 141 40% 4 24.03.2027 -
Théodore Lefèvre Tours Actif 124 / 123 40% 1 22.03.2027 -
Habib Diarra Sunderland Actif 150 / 143 40% 1 21.03.2027 -
Samuel Dahl Benfica Actif 141 / 139 40% 2 18.03.2027 -
Lorent Tolaj Plymouth Argyle Actif 128 / 116 40% 1 17.03.2027 -
Duk Atlas Actif 118 / 122 40% 1 07.03.2027 -
Gustavo Silva Vitoria Guimaraes Actif 138 / 127 40% 1 05.03.2027 -
Majid Moharrami Rah Ahan Actif 112 / 111 40% 3 03.03.2027 -
Mattéo Guendouzi Fenerbahce Actif 141 / 153 40% 1 02.03.2027 -
Luis Caicedo Spartak 1918 Actif 99 / 88 40% 1 24.02.2027 -
Pedro Henrique Shakhtar Actif 133 / 129 40% 1 18.02.2027 -
Sorriso Famalicao Actif 123 / 134 40% 1 16.02.2027 -
Lucas Varaldo Morelia Actif 117 / 126 40% 1 12.02.2027 -
Gustavo Mantuan Zenit Actif 122 / 130 40% 2 09.02.2027 -
Brayan Gil Baltika Actif 123 / 121 40% 1 07.02.2027 -
Maxim Glushenkov Zenit Actif 134 / 134 40% 1 28.01.2027 -
Jhon Jhon Zenit Actif 141 / 133 40% 1 28.01.2027 -
Mamadou Sangaré Brentford Actif 141 / 133 40% 1 18.01.2027 -
Joe Gelhardt Hull City Actif 130 / 127 40% 1 16.01.2027 -
Enrico Delprato Parma Actif 137 / 144 40% 1 03.01.2027 -
Nicolò Fagioli Fiorentina Actif 137 / 139 40% 1 01.01.2027 -
Leroy Sané Galatasaray Actif 149 / 163 40% 1 01.08.2026 -